createdAt,value
2023-03-11T00:00:48.692Z,3.88
2023-03-11T00:03:18.272Z,4.00
2023-03-11T00:05:47.130Z,4.26
2023-03-11T00:08:17.392Z,4.23
2023-03-11T00:10:46.744Z,4.35
2023-03-11T00:13:16.439Z,4.29
2023-03-11T00:15:47.151Z,4.84
2023-03-11T00:18:14.905Z,4.29
2023-03-11T00:20:44.913Z,3.98
2023-03-11T00:23:13.882Z,4.08
2023-03-11T00:25:41.746Z,3.90
2023-03-11T00:28:10.498Z,4.35
2023-03-11T00:30:39.557Z,4.25
2023-03-11T00:33:09.172Z,4.13
2023-03-11T00:35:37.260Z,4.57
2023-03-11T00:38:07.613Z,3.77
2023-03-11T00:40:57.153Z,4.19
2023-03-11T00:43:24.817Z,3.90
2023-03-11T00:45:52.535Z,4.19
2023-03-11T00:48:21.653Z,4.13
2023-03-11T00:50:49.368Z,3.74
2023-03-11T00:53:17.089Z,4.25
2023-03-11T00:55:44.941Z,3.76
2023-03-11T00:58:13.562Z,3.87
2023-03-11T01:00:41.509Z,4.42
2023-03-11T01:03:09.852Z,4.22
2023-03-11T01:05:39.087Z,4.55
2023-03-11T01:08:06.880Z,3.83
2023-03-11T01:10:35.674Z,3.98
2023-03-11T01:13:03.815Z,3.75
2023-03-11T01:15:33.440Z,4.34
2023-03-11T01:18:01.394Z,4.44
2023-03-11T01:20:29.374Z,3.90
2023-03-11T01:22:58.474Z,4.29
2023-03-11T01:25:26.484Z,3.98
2023-03-11T01:27:54.249Z,4.43
2023-03-11T01:30:23.463Z,4.33
2023-03-11T01:32:51.921Z,3.75
2023-03-11T01:35:21.404Z,4.21
2023-03-11T01:38:09.955Z,4.53
2023-03-11T01:40:40.796Z,4.12
2023-03-11T01:43:46.679Z,4.21
2023-03-11T01:46:17.636Z,4.39
2023-03-11T01:48:47.846Z,4.12
2023-03-11T01:51:17.490Z,4.41
2023-03-11T01:53:45.283Z,4.52
2023-03-11T01:56:13.879Z,4.43
2023-03-11T01:58:44.976Z,4.33
2023-03-11T02:01:13.067Z,4.22
2023-03-11T02:03:43.030Z,3.77
2023-03-11T02:06:13.830Z,4.23
2023-03-11T02:08:43.280Z,4.07
2023-03-11T02:11:13.728Z,3.60
2023-03-11T02:13:42.618Z,3.89
2023-03-11T02:16:10.576Z,4.06
2023-03-11T02:18:38.743Z,4.61
2023-03-11T02:21:15.018Z,3.77
2023-03-11T02:23:49.156Z,4.38
2023-03-11T02:26:20.052Z,3.76
2023-03-11T02:28:49.864Z,4.13
2023-03-11T02:31:17.843Z,4.14
2023-03-11T02:33:47.272Z,3.72
2023-03-11T02:36:35.333Z,3.78
2023-03-11T02:39:03.158Z,3.50
2023-03-11T02:41:31.521Z,3.89
2023-03-11T02:44:01.201Z,4.37
2023-03-11T02:46:29.043Z,3.66
2023-03-11T02:48:57.471Z,3.87
2023-03-11T02:51:25.212Z,3.81
2023-03-11T02:53:56.051Z,3.94
2023-03-11T02:56:23.769Z,4.06
2023-03-11T02:58:51.458Z,3.78
2023-03-11T03:01:20.653Z,3.76
2023-03-11T03:03:48.475Z,3.46
2023-03-11T03:06:16.206Z,3.45
2023-03-11T03:08:44.058Z,3.94
2023-03-11T03:11:11.858Z,3.28
2023-03-11T03:13:39.571Z,4.19
2023-03-11T03:16:07.742Z,3.60
2023-03-11T03:18:37.079Z,3.65
2023-03-11T03:21:05.598Z,3.80
2023-03-11T03:23:35.243Z,3.60
2023-03-11T03:26:03.245Z,3.66
2023-03-11T03:28:30.968Z,3.36
2023-03-11T03:31:04.953Z,3.55
2023-03-11T03:33:33.100Z,4.00
2023-03-11T03:36:02.299Z,3.60
2023-03-11T03:38:30.097Z,3.61
2023-03-11T03:40:57.808Z,3.89
2023-03-11T03:43:25.696Z,3.34
2023-03-11T03:45:57.251Z,3.60
2023-03-11T03:48:25.046Z,3.86
2023-03-11T03:50:53.089Z,4.00
2023-03-11T03:53:22.432Z,3.92
2023-03-11T03:55:50.946Z,3.47
2023-03-11T03:58:18.651Z,3.91
2023-03-11T04:00:46.510Z,3.43
2023-03-11T04:03:14.215Z,4.02
2023-03-11T04:05:41.932Z,3.97
2023-03-11T04:08:09.657Z,3.50
2023-03-11T04:10:38.769Z,3.59
2023-03-11T04:13:06.457Z,3.59
2023-03-11T04:15:34.208Z,4.08
2023-03-11T04:18:01.886Z,3.57
2023-03-11T04:20:29.581Z,3.57
2023-03-11T04:22:57.267Z,4.08
2023-03-11T04:25:24.981Z,4.01
2023-03-11T04:27:54.035Z,3.88
2023-03-11T04:30:21.905Z,3.65
2023-03-11T04:33:05.497Z,3.48
2023-03-11T04:35:33.210Z,4.14
2023-03-11T04:38:01.514Z,3.39
2023-03-11T04:40:29.243Z,3.44
2023-03-11T04:43:04.466Z,4.16
2023-03-11T04:45:32.248Z,4.17
2023-03-11T04:47:59.942Z,4.47
2023-03-11T04:50:27.659Z,3.98
2023-03-11T04:52:56.537Z,4.09
2023-03-11T04:55:24.234Z,3.87
2023-03-11T05:01:37.421Z,3.89
2023-03-11T05:04:05.198Z,3.51
2023-03-11T05:06:32.914Z,3.35
2023-03-11T05:09:00.584Z,4.09
2023-03-11T05:11:28.272Z,3.53
2023-03-11T05:13:55.938Z,3.92
2023-03-11T05:16:23.714Z,3.64
2023-03-11T05:18:52.905Z,3.58
2023-03-11T05:21:20.548Z,3.43
2023-03-11T05:23:48.182Z,3.46
2023-03-11T05:26:15.821Z,3.29
2023-03-11T05:28:43.466Z,3.35
2023-03-11T05:31:11.757Z,3.09
2023-03-11T05:33:39.461Z,2.99
2023-03-11T05:36:11.452Z,3.45
2023-03-11T05:38:39.498Z,2.98
2023-03-11T05:41:07.495Z,3.31
2023-03-11T05:43:35.173Z,3.09
2023-03-11T05:46:02.869Z,2.90
2023-03-11T05:48:30.884Z,3.26
2023-03-11T05:50:59.429Z,2.94
2023-03-11T05:53:28.454Z,2.77
2023-03-11T05:55:59.400Z,2.83
2023-03-11T05:58:27.165Z,2.88
2023-03-11T06:00:55.023Z,2.68
2023-03-11T06:03:22.768Z,3.04
2023-03-11T06:05:52.721Z,2.74
2023-03-11T06:08:22.008Z,3.01
2023-03-11T06:10:51.044Z,2.90
2023-03-11T06:13:18.704Z,2.78
2023-03-11T06:15:46.826Z,2.81
2023-03-11T06:18:14.457Z,2.77
2023-03-11T06:20:42.083Z,2.89
2023-03-11T06:23:09.756Z,2.92
2023-03-11T06:25:37.511Z,2.86
2023-03-11T06:28:06.734Z,2.96
2023-03-11T06:30:34.417Z,2.95
2023-03-11T06:33:02.085Z,3.07
2023-03-11T06:35:29.824Z,3.16
2023-03-11T06:37:57.475Z,2.58
2023-03-11T06:40:25.157Z,3.09
2023-03-11T06:42:52.857Z,2.97
2023-03-11T06:45:21.955Z,2.76
2023-03-11T06:47:49.621Z,2.82
2023-03-11T06:50:17.946Z,2.65
2023-03-11T06:52:45.642Z,2.51
2023-03-11T06:55:13.299Z,2.64
2023-03-11T06:57:40.963Z,2.69
2023-03-11T07:00:12.615Z,2.85
2023-03-11T07:02:41.741Z,3.17
2023-03-11T07:05:10.180Z,3.03
2023-03-11T07:07:37.880Z,2.97
2023-03-11T07:10:06.515Z,3.03
2023-03-11T07:12:34.189Z,3.16
2023-03-11T07:15:02.119Z,3.00
2023-03-11T07:17:29.778Z,3.06
2023-03-11T07:19:58.932Z,3.65
2023-03-11T07:22:26.741Z,3.24
2023-03-11T07:24:54.573Z,3.49
2023-03-11T07:27:22.481Z,3.30
2023-03-11T07:29:50.347Z,3.16
2023-03-11T07:32:18.123Z,3.54
2023-03-11T07:34:45.813Z,3.71
2023-03-11T07:37:15.383Z,3.92
2023-03-11T07:39:43.152Z,4.04
2023-03-11T07:42:10.861Z,3.51
2023-03-11T07:44:38.767Z,3.50
2023-03-11T07:47:07.320Z,3.82
2023-03-11T07:49:34.994Z,3.78
2023-03-11T07:52:02.725Z,3.95
2023-03-11T07:54:31.771Z,3.64
2023-03-11T07:56:59.435Z,3.41
2023-03-11T07:59:27.189Z,3.78
2023-03-11T08:01:54.836Z,4.11
2023-03-11T08:04:22.536Z,4.34
2023-03-11T08:06:52.006Z,3.87
2023-03-11T08:09:19.792Z,3.77
2023-03-11T08:11:49.884Z,3.96
2023-03-11T08:14:17.599Z,3.92
2023-03-11T08:16:45.225Z,3.73
2023-03-11T08:19:13.282Z,3.78
2023-03-11T08:21:41.170Z,3.87
2023-03-11T08:24:09.206Z,4.55
2023-03-11T08:26:36.932Z,4.31
2023-03-11T08:29:06.164Z,4.19
2023-03-11T08:31:35.238Z,4.22
2023-03-11T08:34:05.325Z,4.04
2023-03-11T08:36:33.704Z,4.11
2023-03-11T08:39:02.031Z,3.87
2023-03-11T08:41:29.994Z,5.22
2023-03-11T08:43:57.697Z,4.50
2023-03-11T08:46:28.864Z,4.36
2023-03-11T08:48:59.715Z,4.25
2023-03-11T08:51:29.252Z,5.00
2023-03-11T08:53:56.982Z,4.47
2023-03-11T08:56:24.798Z,4.76
2023-03-11T08:58:52.825Z,4.91
2023-03-11T09:01:21.296Z,5.31
2023-03-11T09:03:50.736Z,5.02
2023-03-11T09:06:18.810Z,5.06
2023-03-11T09:08:47.664Z,5.04
2023-03-11T09:11:15.887Z,5.23
2023-03-11T09:13:44.112Z,5.24
2023-03-11T09:16:14.327Z,5.63
2023-03-11T09:18:42.137Z,5.05
2023-03-11T09:21:11.835Z,5.33
2023-03-11T09:23:41.635Z,5.05
2023-03-11T09:26:11.476Z,4.92
2023-03-11T09:28:39.181Z,5.58
2023-03-11T09:31:07.250Z,4.90
2023-03-11T09:33:38.113Z,5.04
2023-03-11T09:36:07.126Z,5.72
2023-03-11T09:38:36.297Z,5.88
2023-03-11T09:41:07.908Z,5.61
2023-03-11T09:43:49.197Z,5.53
2023-03-11T09:46:31.748Z,5.74
2023-03-11T09:49:02.522Z,5.74
2023-03-11T09:51:32.235Z,6.02
2023-03-11T09:54:05.172Z,5.97
2023-03-11T09:56:36.456Z,5.51
2023-03-11T09:59:07.630Z,5.74
2023-03-11T10:01:37.461Z,6.12
2023-03-11T10:04:09.892Z,5.68
2023-03-11T10:06:37.906Z,6.17
2023-03-11T10:09:24.646Z,5.57
2023-03-11T10:11:58.735Z,5.74
2023-03-11T10:14:39.835Z,6.29
2023-03-11T10:17:16.924Z,6.42
2023-03-11T10:19:49.059Z,6.23
2023-03-11T10:22:22.052Z,5.98
2023-03-11T10:25:01.491Z,6.39
2023-03-11T10:27:32.885Z,6.80
2023-03-11T10:30:05.307Z,5.65
2023-03-11T10:32:39.361Z,5.99
2023-03-11T10:35:16.856Z,6.73
2023-03-11T10:37:50.003Z,6.55
2023-03-11T10:40:25.556Z,6.47
2023-03-11T10:42:55.263Z,6.84
2023-03-11T10:45:24.016Z,6.85
2023-03-11T10:47:52.023Z,6.39
2023-03-11T10:50:21.077Z,6.97
2023-03-11T10:53:07.727Z,6.34
2023-03-11T10:55:37.308Z,6.60
2023-03-11T10:58:11.971Z,7.13
2023-03-11T11:00:39.695Z,6.75
2023-03-11T11:03:15.879Z,6.75
2023-03-11T11:05:43.558Z,7.42
2023-03-11T11:08:15.906Z,7.54
2023-03-11T11:10:53.169Z,6.99
2023-03-11T11:13:22.426Z,6.62
2023-03-11T11:15:55.939Z,6.92
2023-03-11T11:18:25.906Z,7.12
2023-03-11T11:21:00.871Z,7.78
2023-03-11T11:23:32.730Z,7.12
2023-03-11T11:26:04.667Z,6.79
2023-03-11T11:28:33.685Z,7.11
2023-03-11T11:31:03.808Z,7.65
2023-03-11T11:33:32.510Z,8.04
2023-03-11T11:36:02.838Z,7.33
2023-03-11T11:38:31.952Z,7.68
2023-03-11T11:41:04.859Z,7.78
2023-03-11T11:43:44.097Z,7.53
2023-03-11T11:46:21.100Z,8.41
2023-03-11T11:48:52.779Z,7.14
2023-03-11T11:51:22.732Z,7.78
2023-03-11T11:53:53.669Z,8.02
2023-03-11T11:56:25.074Z,7.68
2023-03-11T11:58:54.704Z,7.77
2023-03-11T12:01:31.683Z,7.34
2023-03-11T12:04:23.923Z,7.63
2023-03-11T12:06:58.710Z,7.63
2023-03-11T12:09:31.374Z,8.90
2023-03-11T12:12:06.233Z,7.61
2023-03-11T12:14:37.231Z,7.45
2023-03-11T12:17:05.498Z,8.86
2023-03-11T12:19:38.455Z,7.98
2023-03-11T12:22:18.710Z,8.32
2023-03-11T12:24:59.258Z,7.64
2023-03-11T12:27:31.379Z,8.16
2023-03-11T12:30:01.400Z,8.36
2023-03-11T12:32:33.751Z,8.23
2023-03-11T12:35:04.642Z,8.20
2023-03-11T12:37:32.511Z,8.19
2023-03-11T12:40:00.453Z,8.06
2023-03-11T12:42:40.021Z,8.60
2023-03-11T12:45:48.532Z,8.39
2023-03-11T12:48:37.015Z,8.55
2023-03-11T12:51:05.838Z,9.09
2023-03-11T12:53:43.933Z,7.68
2023-03-11T12:56:20.656Z,7.59
2023-03-11T12:59:11.164Z,8.02
2023-03-11T13:02:03.479Z,8.99
2023-03-11T13:04:41.608Z,8.41
2023-03-11T13:07:41.828Z,8.84
2023-03-11T13:10:16.088Z,8.54
2023-03-11T13:12:45.323Z,8.42
2023-03-11T13:15:41.688Z,9.21
2023-03-11T13:18:24.853Z,8.89
2023-03-11T13:20:59.917Z,8.47
2023-03-11T13:23:33.827Z,8.57
2023-03-11T13:26:23.878Z,8.28
2023-03-11T13:28:58.784Z,9.30
2023-03-11T13:31:38.843Z,8.58
2023-03-11T13:34:15.632Z,8.45
2023-03-11T13:36:51.365Z,10.27
2023-03-11T13:39:25.938Z,10.94
2023-03-11T13:41:54.111Z,10.94
2023-03-11T13:44:28.998Z,11.50
2023-03-11T13:47:02.765Z,11.71
2023-03-11T13:49:36.784Z,10.94
2023-03-11T13:52:05.325Z,12.02
2023-03-11T13:54:39.316Z,11.88
2023-03-11T13:57:07.352Z,12.08
2023-03-11T13:59:36.348Z,11.81
2023-03-11T14:02:35.364Z,11.85
2023-03-11T14:05:05.369Z,13.04
2023-03-11T14:07:35.445Z,13.01
2023-03-11T14:10:25.249Z,14.37
2023-03-11T14:12:53.199Z,12.74
2023-03-11T14:15:23.113Z,13.13
2023-03-11T14:17:54.529Z,13.57
2023-03-11T14:20:25.390Z,13.90
2023-03-11T14:22:54.971Z,13.17
2023-03-11T14:25:25.918Z,12.64
2023-03-11T14:27:56.192Z,14.13
2023-03-11T14:30:26.545Z,13.27
2023-03-11T14:33:01.482Z,15.07
2023-03-11T14:35:29.877Z,13.05
2023-03-11T14:37:57.635Z,12.12
2023-03-11T14:40:28.876Z,12.18
2023-03-11T14:42:58.624Z,14.75
2023-03-11T14:45:27.674Z,14.13
2023-03-11T14:47:57.579Z,14.02
2023-03-11T14:50:28.287Z,12.98
2023-03-11T14:52:59.699Z,14.39
2023-03-11T14:55:31.247Z,14.48
2023-03-11T14:58:03.691Z,14.17
2023-03-11T15:00:34.936Z,15.09
2023-03-11T15:03:07.440Z,15.31
2023-03-11T15:05:43.045Z,15.20
2023-03-11T15:08:10.937Z,14.32
2023-03-11T15:10:39.024Z,14.84
2023-03-11T15:13:09.627Z,15.54
2023-03-11T15:15:37.357Z,15.90
2023-03-11T15:18:16.574Z,14.72
2023-03-11T15:20:47.905Z,17.74
2023-03-11T15:23:22.634Z,13.38
2023-03-11T15:25:51.054Z,13.08
2023-03-11T15:28:25.182Z,15.68
2023-03-11T15:30:53.799Z,13.52
2023-03-11T15:33:23.413Z,12.87
2023-03-11T15:35:52.548Z,12.23
2023-03-11T15:38:23.673Z,12.98
2023-03-11T15:40:54.051Z,12.10
2023-03-11T15:43:24.860Z,10.95
2023-03-11T15:45:54.331Z,12.38
2023-03-11T15:48:23.387Z,12.33
2023-03-11T15:50:54.816Z,12.38
2023-03-11T15:53:23.349Z,11.83
2023-03-11T15:55:51.301Z,11.17
2023-03-11T15:58:21.511Z,11.03
2023-03-11T16:00:51.243Z,10.59
2023-03-11T16:03:19.761Z,10.20
2023-03-11T16:05:47.718Z,9.28
2023-03-11T16:08:17.284Z,9.70
2023-03-11T16:10:44.959Z,9.27
2023-03-11T16:13:13.289Z,9.52
2023-03-11T16:15:42.261Z,8.58
2023-03-11T16:18:10.635Z,8.91
2023-03-11T16:20:41.888Z,8.74
2023-03-11T16:23:13.516Z,8.90
2023-03-11T16:25:42.557Z,9.39
2023-03-11T16:28:12.596Z,9.12
2023-03-11T16:30:40.257Z,8.92
2023-03-11T16:33:08.019Z,8.44
2023-03-11T16:35:36.164Z,8.43
2023-03-11T16:38:03.822Z,8.41
2023-03-11T16:40:32.791Z,8.74
2023-03-11T16:43:03.332Z,8.61
2023-03-11T16:45:31.060Z,8.29
2023-03-11T16:47:58.804Z,8.91
2023-03-11T16:50:44.544Z,8.95
2023-03-11T16:53:14.026Z,8.88
2023-03-11T16:55:41.744Z,9.06
2023-03-11T16:58:10.782Z,8.72
2023-03-11T17:00:40.995Z,8.09
2023-03-11T17:03:08.736Z,9.09
2023-03-11T17:05:36.416Z,8.41
2023-03-11T17:08:04.500Z,8.57
2023-03-11T17:10:36.677Z,7.97
2023-03-11T17:13:04.397Z,8.15
2023-03-11T17:15:36.051Z,7.96
2023-03-11T17:18:03.994Z,8.06
2023-03-11T17:20:31.682Z,7.74
2023-03-11T17:22:59.444Z,7.56
2023-03-11T17:25:27.100Z,7.48
2023-03-11T17:27:54.964Z,7.69
2023-03-11T17:30:36.063Z,7.44
2023-03-11T17:33:06.336Z,7.21
2023-03-11T17:35:34.248Z,7.41
2023-03-11T17:38:01.935Z,7.13
2023-03-11T17:40:31.663Z,7.09
2023-03-11T17:42:59.877Z,7.07
2023-03-11T17:45:27.868Z,6.75
2023-03-11T17:47:55.622Z,6.61
2023-03-11T17:50:26.445Z,6.52
2023-03-11T17:52:54.444Z,6.12
2023-03-11T17:55:22.133Z,6.07
2023-03-11T17:57:49.776Z,6.06
2023-03-11T18:00:18.204Z,6.08
2023-03-11T18:02:45.860Z,5.92
2023-03-11T18:05:13.502Z,5.90
2023-03-11T18:07:42.724Z,5.69
2023-03-11T18:10:11.861Z,5.58
2023-03-11T18:12:40.184Z,5.41
2023-03-11T18:15:14.419Z,5.48
2023-03-11T18:17:42.228Z,5.61
2023-03-11T18:20:11.007Z,5.34
2023-03-11T18:22:40.120Z,5.04
2023-03-11T18:25:11.428Z,5.22
2023-03-11T18:27:39.179Z,5.03
2023-03-11T18:30:08.181Z,4.97
2023-03-11T18:32:35.914Z,5.16
2023-03-11T18:35:03.546Z,5.01
2023-03-11T18:37:33.162Z,5.04
2023-03-11T18:40:00.795Z,5.01
2023-03-11T18:42:29.797Z,4.84
2023-03-11T18:44:57.413Z,4.75
2023-03-11T18:47:25.156Z,4.56
2023-03-11T18:49:52.803Z,4.54
2023-03-11T18:52:20.545Z,4.44
2023-03-11T18:54:48.372Z,4.46
2023-03-11T18:57:16.013Z,4.34
2023-03-11T18:59:45.096Z,4.36
2023-03-11T19:02:12.724Z,4.45
2023-03-11T19:04:40.859Z,4.41
2023-03-11T19:07:08.619Z,4.38
2023-03-11T19:09:36.924Z,4.11
2023-03-11T19:12:04.912Z,4.19
2023-03-11T19:14:33.067Z,4.13
2023-03-11T19:17:02.300Z,4.17
2023-03-11T19:19:33.518Z,4.15
2023-03-11T19:22:01.355Z,4.21
2023-03-11T19:24:29.138Z,4.23
2023-03-11T19:26:57.156Z,4.20
2023-03-11T19:29:26.879Z,4.21
2023-03-11T19:31:54.706Z,4.28
2023-03-11T19:34:25.281Z,4.10
2023-03-11T19:36:52.927Z,4.16
2023-03-11T19:39:20.829Z,4.16
2023-03-11T19:41:48.467Z,4.33
2023-03-11T19:44:16.192Z,4.19
2023-03-11T19:46:44.242Z,4.14
2023-03-11T19:49:11.928Z,4.18
2023-03-11T19:51:49.741Z,4.18
2023-03-11T19:54:18.377Z,4.01
2023-03-11T19:56:46.096Z,4.16
2023-03-11T19:59:13.817Z,4.04
2023-03-11T20:01:42.296Z,4.06
2023-03-11T20:04:10.771Z,3.91
2023-03-11T20:06:38.612Z,3.97
2023-03-11T20:09:07.949Z,3.98
2023-03-11T20:11:38.824Z,3.68
2023-03-11T20:16:52.512Z,3.61
2023-03-11T20:19:20.394Z,3.80
2023-03-11T20:21:48.551Z,3.93
2023-03-11T20:24:17.776Z,3.80
2023-03-11T20:26:45.531Z,3.86
2023-03-11T20:29:13.192Z,3.97
2023-03-11T20:31:41.108Z,3.93
2023-03-11T20:34:08.825Z,3.78
2023-03-11T20:36:36.582Z,3.56
2023-03-11T20:39:08.552Z,3.90
2023-03-11T20:41:40.806Z,3.90
2023-03-11T20:44:09.617Z,4.04
2023-03-11T20:46:37.512Z,4.21
2023-03-11T20:49:05.524Z,4.26
2023-03-11T20:51:33.489Z,4.17
2023-03-11T20:54:01.248Z,4.41
2023-03-11T20:56:29.439Z,4.19
2023-03-11T20:59:01.004Z,4.41
2023-03-11T21:01:30.230Z,4.59
2023-03-11T21:03:59.363Z,4.61
2023-03-11T21:06:42.012Z,4.30
2023-03-11T21:09:13.817Z,4.30
2023-03-11T21:11:41.761Z,4.54
2023-03-11T21:14:11.243Z,4.50
2023-03-11T21:16:39.078Z,3.99
2023-03-11T21:19:08.837Z,4.41
2023-03-11T21:21:37.055Z,4.31
2023-03-11T21:24:05.231Z,4.34
2023-03-11T21:26:51.237Z,4.17
2023-03-11T21:29:20.426Z,3.92
2023-03-11T21:31:48.181Z,3.75
2023-03-11T21:34:15.986Z,3.77
2023-03-11T21:36:43.843Z,3.85
2023-03-11T21:39:23.397Z,3.68
2023-03-11T21:41:53.383Z,3.66
2023-03-11T21:44:22.538Z,3.62
2023-03-11T21:46:50.371Z,3.46
2023-03-11T21:49:18.194Z,3.60
2023-03-11T21:51:45.903Z,3.54
2023-03-11T21:54:15.369Z,3.52
2023-03-11T21:56:43.465Z,3.55
2023-03-11T21:59:11.237Z,3.56
2023-03-11T22:01:40.485Z,3.41
2023-03-11T22:04:08.499Z,3.56
2023-03-11T22:06:36.427Z,3.48
2023-03-11T22:09:04.964Z,3.29
2023-03-11T22:11:32.831Z,3.35
2023-03-11T22:14:01.009Z,3.27
2023-03-11T22:16:28.886Z,3.23
2023-03-11T22:18:58.197Z,3.44
2023-03-11T22:21:25.934Z,3.43
2023-03-11T22:23:53.638Z,3.44
2023-03-11T22:26:21.279Z,3.43
2023-03-11T22:28:48.922Z,3.61
2023-03-11T22:31:19.004Z,3.69
2023-03-11T22:33:47.087Z,3.56
2023-03-11T22:36:16.406Z,3.34
2023-03-11T22:38:45.068Z,3.82
2023-03-11T22:41:14.476Z,3.95
2023-03-11T22:43:42.151Z,4.12
2023-03-11T22:46:09.849Z,4.11
2023-03-11T22:48:37.549Z,4.12
2023-03-11T22:51:06.497Z,4.09
2023-03-11T22:53:35.840Z,4.17
2023-03-11T22:56:08.248Z,4.31
2023-03-11T22:58:35.938Z,4.41
2023-03-11T23:01:04.332Z,4.14
2023-03-11T23:03:32.483Z,4.08
2023-03-11T23:06:00.275Z,3.93
2023-03-11T23:08:28.202Z,3.74
2023-03-11T23:10:57.338Z,3.76
2023-03-11T23:13:26.898Z,3.87
2023-03-11T23:15:54.565Z,4.02
2023-03-11T23:18:22.286Z,3.66
2023-03-11T23:20:49.942Z,3.89
2023-03-11T23:23:48.641Z,3.91
2023-03-11T23:26:17.969Z,4.02
2023-03-11T23:28:46.398Z,3.95
2023-03-11T23:31:15.680Z,4.07
2023-03-11T23:33:43.495Z,4.30
2023-03-11T23:36:13.378Z,4.32
2023-03-11T23:38:42.421Z,4.30
2023-03-11T23:41:12.186Z,4.34
2023-03-11T23:43:41.783Z,3.88
2023-03-11T23:46:10.939Z,4.50
2023-03-11T23:48:39.092Z,4.42
2023-03-11T23:51:08.259Z,4.51
2023-03-11T23:53:36.323Z,4.45
2023-03-11T23:56:09.796Z,4.54
2023-03-11T23:58:37.441Z,4.32
